X  ChiudiMetar Aviation Dati Meteorologici     LIPZ Venice Marco Polo

Temperatura

22°C Temperatura

18°C Punto di rugiada

78% Umidità



Vento

13 KM/H

 8 MPH

 4 M/S

 7 KTS



30°
Nord Nord
Est
Condizioni attuali

Chiaro Chiaro
Pressione atmosferica 1017.92 (hPa) - 30.06 (in)
Visibilità 6.2 (mi) - 10 (km)
Aeroporto
Codice Aeroporto LIPZ

Posizione Venice Marco Polo 26 (km)

Metar:
LIPZ 242020Z 03007KT CAVOK 22/18 Q1018 NOSIG

Ore: 24-08-2019 22:20